Time;durP1;ratioP1;P1;durP2;ratioP2;P2;SDS_P1;SDS_P2;PMS_P1;PMS_P2;Temp;Humidity;BMP_temperature;BMP_pressure;BME280_temperature;BME280_humidity;BME280_pressure;Samples;Min_cycle;Max_cycle;Signal;HPM_P1;HPM_P2
2022/05/30 00:01:51;;;;;;;3.40;0.60;;;8.80;99.90;;;;;;6256114;22;20020;-94
2022/05/30 00:48:01;;;;;;;1.83;0.70;;;8.60;99.90;;;;;;6241626;22;20051;-93
2022/05/30 04:17:20;;;;;;;1.88;0.70;;;8.50;99.90;;;;;;6258958;22;20026;-94
2022/05/30 05:18:03;;;;;;;1.52;0.25;;;10.70;99.90;;;;;;6272570;22;20020;-91
2022/05/30 05:23:18;;;;;;;0.45;0.20;;;11.00;99.90;;;;;;6241330;22;20020;-88
2022/05/30 05:25:43;;;;;;;1.43;0.30;;;11.10;99.90;;;;;;6220583;22;20024;-91
2022/05/30 05:28:09;;;;;;;0.57;0.30;;;11.00;99.90;;;;;;6238580;22;20055;-91
2022/05/30 05:30:35;;;;;;;1.03;0.40;;;10.90;99.90;;;;;;6219203;23;20023;-90
2022/05/30 05:33:01;;;;;;;1.27;0.40;;;10.80;99.90;;;;;;6215831;23;20103;-91
2022/05/30 05:35:26;;;;;;;1.17;0.40;;;10.70;99.90;;;;;;6216126;23;20063;-92
2022/05/30 05:45:41;;;;;;;1.92;0.30;;;10.30;99.90;;;;;;6273607;22;20053;-91
2022/05/30 05:48:08;;;;;;;1.65;0.50;;;10.20;99.90;;;;;;6242791;22;20027;-92
2022/05/30 05:50:36;;;;;;;0.80;0.35;;;10.20;99.90;;;;;;6243577;22;20016;-91
2022/05/30 05:53:02;;;;;;;0.98;0.47;;;10.20;99.90;;;;;;6270179;22;20099;-91
2022/05/30 05:55:27;;;;;;;0.53;0.30;;;10.20;99.90;;;;;;6244291;22;20020;-94
2022/05/30 05:57:53;;;;;;;1.43;0.40;;;10.10;99.90;;;;;;6246005;22;20031;-92
2022/05/30 06:00:19;;;;;;;1.37;0.30;;;10.10;99.90;;;;;;6271691;22;20043;-92
2022/05/30 06:02:45;;;;;;;1.67;0.50;;;10.10;99.90;;;;;;6245499;22;20020;-92
2022/05/30 06:05:11;;;;;;;1.13;0.40;;;10.10;99.90;;;;;;6270638;22;20023;-92
2022/05/30 06:07:40;;;;;;;2.15;0.40;;;10.10;99.90;;;;;;6245745;22;20467;-92
2022/05/30 06:10:07;;;;;;;1.10;0.40;;;10.10;99.90;;;;;;6246172;22;20016;-93
2022/05/30 06:12:38;;;;;;;1.92;0.43;;;10.10;99.90;;;;;;6271803;22;20007;-89
2022/05/30 06:15:08;;;;;;;1.13;0.38;;;10.20;99.90;;;;;;6245357;22;20038;-90
2022/05/30 06:17:34;;;;;;;0.60;0.30;;;10.30;99.90;;;;;;6271270;22;20015;-91
2022/05/30 06:20:00;;;;;;;0.90;0.43;;;10.40;99.90;;;;;;6245974;22;20011;-91
2022/05/30 06:22:26;;;;;;;1.55;0.45;;;10.40;99.90;;;;;;6245866;22;20022;-91
2022/05/30 06:24:52;;;;;;;5.07;3.13;;;10.40;99.90;;;;;;6245902;22;20008;-92
2022/05/30 06:27:20;;;;;;;2.23;1.27;;;10.50;99.90;;;;;;6245953;22;20019;-91
2022/05/30 06:29:47;;;;;;;1.75;0.40;;;10.50;99.90;;;;;;6245737;22;20388;-91
2022/05/30 06:32:15;;;;;;;5.75;4.05;;;10.50;99.90;;;;;;6245888;22;20011;-92
2022/05/30 06:34:41;;;;;;;2.33;0.60;;;10.50;99.90;;;;;;6245736;22;20056;-90
2022/05/30 06:37:08;;;;;;;11.33;9.17;;;10.50;99.90;;;;;;6271105;22;20011;-91
2022/05/30 06:39:34;;;;;;;0.88;0.30;;;10.50;99.90;;;;;;6245895;22;20441;-91
2022/05/30 06:42:00;;;;;;;5.32;4.22;;;10.50;99.90;;;;;;6245189;22;20083;-90
2022/05/30 06:44:25;;;;;;;1.20;0.40;;;10.50;99.90;;;;;;6245391;22;20020;-90
2022/05/30 06:46:51;;;;;;;1.13;0.27;;;10.50;99.90;;;;;;6271118;22;20008;-90
2022/05/30 06:49:18;;;;;;;0.87;0.30;;;10.50;99.90;;;;;;6245718;22;20270;-89
2022/05/30 06:51:44;;;;;;;1.75;0.20;;;10.50;99.90;;;;;;6270615;22;20015;-91
2022/05/30 06:54:09;;;;;;;0.30;0.10;;;10.40;99.90;;;;;;6245515;22;20035;-90
2022/05/30 06:58:11;;;;;;;0.67;0.20;;;10.40;99.90;;;;;;6245225;22;20451;-90
2022/05/30 06:59:25;;;;;;;0.28;0.20;;;10.40;99.90;;;;;;6270839;22;20020;-90
2022/05/30 07:08:27;;;;;;;0.60;0.30;;;10.40;99.90;;;;;;6271083;22;20073;-93
2022/05/30 07:11:30;;;;;;;0.63;0.20;;;10.50;99.90;;;;;;6271515;22;20103;-93
2022/05/30 07:17:56;;;;;;;0.00;0.00;;;10.40;99.90;;;;;;6272089;22;20010;-92
2022/05/30 07:50:24;;;;;;;1.92;0.32;;;11.70;99.90;;;;;;6270929;22;20019;-90
2022/05/30 07:52:49;;;;;;;1.13;0.20;;;11.90;99.90;;;;;;6270403;22;20051;-91
2022/05/30 07:55:15;;;;;;;0.57;0.30;;;12.00;99.90;;;;;;6244553;22;20076;-89
2022/05/30 07:58:06;;;;;;;;;;;;;;;;;;;;;
2022/05/30 08:24:14;;;;;;;0.60;0.30;;;12.10;99.90;;;;;;6274115;22;20020;-96
2022/05/30 08:26:40;;;;;;;1.80;0.30;;;12.00;99.90;;;;;;6247638;22;20344;-95
2022/05/30 08:29:06;;;;;;;0.40;0.20;;;12.10;99.90;;;;;;6245729;22;20016;-96
2022/05/30 08:31:31;;;;;;;0.20;0.17;;;12.00;99.90;;;;;;6246587;22;20525;-96
2022/05/30 08:33:58;;;;;;;0.30;0.20;;;11.90;99.90;;;;;;6245930;22;20008;-94
2022/05/30 08:36:23;;;;;;;1.63;0.13;;;11.90;99.90;;;;;;6271886;22;20322;-94
2022/05/30 08:41:46;;;;;;;1.33;0.10;;;11.90;99.90;;;;;;6271651;22;20022;-93
2022/05/30 08:41:49;;;;;;;0.45;0.20;;;11.80;99.90;;;;;;6272193;22;20024;-93
2022/05/30 08:44:16;;;;;;;0.50;0.20;;;11.80;99.90;;;;;;6246978;22;20015;-96
2022/05/30 08:46:48;;;;;;;0.55;0.20;;;11.80;99.90;;;;;;6272093;22;20051;-96
2022/05/30 08:49:29;;;;;;;1.15;0.38;;;11.80;99.90;;;;;;6247185;22;20023;-94
2022/05/30 08:52:40;;;;;;;1.42;0.22;;;11.80;99.90;;;;;;6248979;22;20041;-94
2022/05/30 08:55:24;;;;;;;0.32;0.22;;;11.80;99.90;;;;;;6246536;22;20019;-96
2022/05/30 08:58:12;;;;;;;1.70;0.20;;;11.90;99.90;;;;;;6248437;22;20318;-93
2022/05/30 14:05:56;;;;;;;1.00;0.30;;;11.90;99.90;;;;;;6274353;22;20095;-91
2022/05/30 14:08:40;;;;;;;1.17;0.30;;;11.80;99.90;;;;;;6247307;22;20467;-92
2022/05/30 14:11:08;;;;;;;0.35;0.20;;;11.80;99.90;;;;;;6274389;22;20011;-88
2022/05/30 14:14:12;;;;;;;0.40;0.20;;;11.80;99.90;;;;;;6248248;22;20030;-92
2022/05/30 14:17:04;;;;;;;0.63;0.28;;;11.80;99.90;;;;;;6245911;22;20341;-89
2022/05/30 14:19:37;;;;;;;0.30;0.10;;;11.80;99.90;;;;;;6245321;22;20019;-90
2022/05/30 14:22:30;;;;;;;2.22;0.30;;;11.90;99.90;;;;;;6246894;22;20020;-92
2022/05/30 14:24:59;;;;;;;1.42;0.40;;;12.00;99.90;;;;;;6250837;22;20363;-89
2022/05/30 14:27:27;;;;;;;2.83;0.60;;;12.00;99.90;;;;;;6252472;22;20094;-91
2022/05/30 14:30:21;;;;;;;0.50;0.22;;;12.20;99.90;;;;;;6248577;22;20065;-89
2022/05/30 14:33:24;;;;;;;2.30;0.60;;;12.20;99.90;;;;;;6262589;22;20020;-90
2022/05/30 14:36:10;;;;;;;2.08;0.40;;;12.30;99.90;;;;;;6252574;22;20057;-90
2022/05/30 14:38:43;;;;;;;1.05;0.38;;;12.40;99.90;;;;;;6245537;22;20035;-91
2022/05/30 14:41:09;;;;;;;4.78;1.52;;;12.50;99.90;;;;;;6245891;22;20012;-89
2022/05/30 14:43:51;;;;;;;0.82;0.40;;;12.60;99.90;;;;;;6245706;22;20047;-88
2022/05/30 14:46:40;;;;;;;1.23;0.40;;;12.80;99.90;;;;;;6245501;22;20500;-91
2022/05/30 14:49:31;;;;;;;1.55;0.63;;;12.90;99.90;;;;;;6245763;22;20029;-88
2022/05/30 14:56:03;;;;;;;1.05;0.40;;;13.10;99.90;;;;;;6261574;22;20352;-91
2022/05/30 15:06:23;;;;;;;0.82;0.35;;;13.10;99.90;;;;;;6239910;22;20024;-90
2022/05/30 15:08:50;;;;;;;1.00;0.35;;;13.00;99.90;;;;;;6215387;23;20059;-91
2022/05/30 15:11:19;;;;;;;1.23;0.20;;;13.00;99.90;;;;;;6216029;22;20012;-89
2022/05/30 15:13:48;;;;;;;1.60;0.50;;;13.00;99.90;;;;;;6243804;23;20026;-92
2022/05/30 15:47:38;;;;;;;0.50;0.20;;;12.90;99.90;;;;;;6262181;22;20020;-95
2022/05/30 16:13:26;;;;;;;0.13;0.10;;;13.00;99.90;;;;;;6243808;22;20327;-90
2022/05/30 16:15:53;;;;;;;1.50;0.20;;;13.00;99.90;;;;;;6219152;22;20521;-90
2022/05/30 16:18:19;;;;;;;;;;;13.00;99.90;;;;;;6220321;22;20091;-93
2022/05/30 16:41:34;;;;;;;0.50;0.30;;;13.10;99.90;;;;;;6269678;22;20022;-96
2022/05/30 17:01:40;;;;;;;2.67;0.40;;;13.10;99.90;;;;;;6245844;22;20025;-92
2022/05/30 17:37:54;;;;;;;1.35;0.40;;;12.90;99.90;;;;;;6413657;22;20022;-88
2022/05/30 17:40:24;;;;;;;1.48;0.30;;;12.90;99.90;;;;;;6362503;22;20045;-90
2022/05/30 17:42:58;;;;;;;0.70;0.40;;;12.90;99.90;;;;;;6387478;22;20014;-89
2022/05/30 17:45:31;;;;;;;1.05;0.35;;;12.90;99.90;;;;;;6386217;22;20028;-93
2022/05/30 17:48:05;;;;;;;0.63;0.20;;;12.90;99.90;;;;;;6404229;22;20054;-92
2022/05/30 18:31:09;;;;;;;2.13;0.40;;;12.60;99.90;;;;;;6242346;22;20464;-95
2022/05/30 18:33:43;;;;;;;1.13;0.40;;;12.60;99.90;;;;;;6130971;23;20075;-93
2022/05/30 18:36:27;;;;;;;1.23;0.30;;;12.50;99.90;;;;;;6216618;23;20046;-96
2022/05/30 18:39:20;;;;;;;0.80;0.30;;;12.50;99.90;;;;;;6220553;23;20102;-94
2022/05/30 18:42:27;;;;;;;2.13;0.30;;;12.40;99.90;;;;;;6222325;23;20385;-90
2022/05/30 18:52:42;;;;;;;0.55;0.28;;;12.30;99.90;;;;;;6241965;22;20425;-89
2022/05/30 18:55:13;;;;;;;;;;;12.30;99.90;;;;;;6241353;23;20056;-91
2022/05/30 18:57:47;;;;;;;0.77;0.30;;;12.30;99.90;;;;;;6215262;23;19961;-88
2022/05/30 19:00:20;;;;;;;0.77;0.30;;;12.20;99.90;;;;;;6215744;22;20027;-89
2022/05/30 19:02:49;;;;;;;0.43;0.30;;;12.20;99.90;;;;;;6215244;22;20022;-89
2022/05/30 19:13:27;;;;;;;0.63;0.30;;;12.10;99.90;;;;;;6249756;22;20456;-89
2022/05/30 19:18:55;;;;;;;1.92;0.55;;;12.00;99.90;;;;;;6253298;22;20022;-89
2022/05/30 19:21:21;;;;;;;1.80;0.57;;;12.00;99.90;;;;;;6250471;22;20023;-94
2022/05/30 19:23:48;;;;;;;1.00;0.30;;;12.00;99.90;;;;;;6220160;22;20509;-89
2022/05/30 19:28:49;;;;;;;0.55;0.20;;;11.90;99.90;;;;;;6433647;22;20033;-91
2022/05/30 19:31:21;;;;;;;1.20;0.40;;;11.90;99.90;;;;;;6407109;22;20009;-93
2022/05/30 19:33:47;;;;;;;1.85;0.30;;;11.90;99.90;;;;;;6406837;22;20013;-92
2022/05/30 19:36:13;;;;;;;2.95;0.63;;;11.80;99.90;;;;;;6407043;22;20423;-93
2022/05/30 19:38:38;;;;;;;1.17;0.47;;;11.80;99.90;;;;;;6407595;22;20065;-88
2022/05/30 19:41:06;;;;;;;1.10;0.40;;;11.80;99.90;;;;;;6413795;22;20153;-87
2022/05/30 19:43:33;;;;;;;2.38;0.60;;;11.80;99.90;;;;;;6438829;22;20070;-88
2022/05/30 19:46:01;;;;;;;1.25;0.40;;;11.70;99.90;;;;;;6414239;22;20014;-88
2022/05/30 19:48:33;;;;;;;2.50;0.43;;;11.70;99.90;;;;;;6410679;22;20449;-91
2022/05/30 19:59:13;;;;;;;1.55;0.50;;;11.50;99.90;;;;;;6244517;22;20024;-92
2022/05/30 20:01:40;;;;;;;1.88;0.43;;;11.50;99.90;;;;;;6250921;22;20031;-93
2022/05/30 20:04:07;;;;;;;1.33;0.68;;;11.40;99.90;;;;;;6218762;23;20016;-92
2022/05/30 20:06:39;;;;;;;1.55;0.50;;;11.40;99.90;;;;;;6217524;22;20016;-90
2022/05/30 20:20:07;;;;;;;2.03;0.70;;;11.10;99.90;;;;;;6229774;22;20020;-96
2022/05/30 20:22:45;;;;;;;0.75;0.45;;;11.10;99.90;;;;;;6218407;23;20012;-90
2022/05/30 20:43:45;;;;;;;1.15;0.50;;;10.90;99.90;;;;;;6376512;22;20017;-92
2022/05/30 20:46:14;;;;;;;1.23;0.50;;;10.90;99.90;;;;;;6352046;22;20013;-92
2022/05/30 20:48:43;;;;;;;1.07;0.50;;;10.90;99.90;;;;;;6350320;22;20101;-90
2022/05/30 20:51:09;;;;;;;1.40;0.65;;;10.80;99.90;;;;;;6350126;22;20013;-92
2022/05/30 20:53:34;;;;;;;1.70;0.63;;;10.80;99.90;;;;;;6350051;22;20350;-94
2022/05/30 20:56:04;;;;;;;1.70;0.80;;;10.80;99.90;;;;;;6349835;22;20117;-96
2022/05/30 20:58:33;;;;;;;1.40;0.70;;;10.80;99.90;;;;;;6350859;22;20024;-92
2022/05/30 21:01:00;;;;;;;2.47;0.83;;;10.80;99.90;;;;;;6352804;22;20009;-92
2022/05/30 21:03:27;;;;;;;2.25;0.90;;;10.80;99.90;;;;;;6354232;22;20025;-96
2022/05/30 21:08:28;;;;;;;1.77;0.88;;;10.80;99.90;;;;;;6220714;22;20024;-96
2022/05/30 21:19:32;;;;;;;1.83;0.90;;;10.70;99.90;;;;;;6207426;23;19995;-92
2022/05/30 21:24:38;;;;;;;2.05;1.05;;;10.70;99.90;;;;;;6256474;22;20028;-96
2022/05/30 21:27:11;;;;;;;2.28;1.10;;;10.70;99.90;;;;;;6230303;23;20108;-96
2022/05/30 21:29:46;;;;;;;2.67;0.98;;;10.60;99.90;;;;;;6227530;23;20043;-96
2022/05/30 21:32:45;;;;;;;2.25;1.08;;;10.70;99.90;;;;;;6228272;22;20023;-93
2022/05/30 21:37:46;;;;;;;2.03;0.90;;;10.70;99.90;;;;;;6245365;22;20020;-96
2022/05/30 21:40:15;;;;;;;2.55;0.90;;;10.70;99.90;;;;;;6223824;22;20146;-94
2022/05/30 21:57:51;;;;;;;2.55;0.90;;;10.50;99.90;;;;;;6241303;23;20024;-96
2022/05/30 22:00:38;;;;;;;1.92;0.98;;;10.50;99.90;;;;;;6226309;23;20016;-92
2022/05/30 22:03:09;;;;;;;2.00;1.00;;;10.50;99.90;;;;;;6216508;22;20072;-95
2022/05/30 22:05:38;;;;;;;2.03;1.00;;;10.50;99.90;;;;;;6216752;23;20087;-94
2022/05/30 22:08:06;;;;;;;2.38;1.00;;;10.50;99.90;;;;;;6217162;22;20016;-93
2022/05/30 22:10:33;;;;;;;2.47;1.23;;;10.50;99.90;;;;;;6215826;22;20094;-91
2022/05/30 22:12:58;;;;;;;1.98;1.08;;;10.50;99.90;;;;;;6216137;23;20023;-91
2022/05/30 22:15:25;;;;;;;2.58;1.15;;;10.50;99.90;;;;;;6216953;23;20024;-92
2022/05/30 22:18:56;;;;;;;2.15;1.00;;;10.50;99.90;;;;;;6218804;22;20012;-92
2022/05/30 22:21:44;;;;;;;2.22;1.20;;;10.50;99.90;;;;;;6239294;23;20053;-95
2022/05/30 22:24:10;;;;;;;2.75;1.13;;;10.50;99.90;;;;;;6216290;23;20023;-95
2022/05/30 22:26:37;;;;;;;2.27;1.13;;;10.40;99.90;;;;;;6214597;23;20024;-95
2022/05/30 22:29:03;;;;;;;2.50;1.00;;;10.40;99.90;;;;;;6215108;22;20324;-95
2022/05/30 22:31:34;;;;;;;2.60;1.30;;;10.40;99.90;;;;;;6215648;23;20020;-92
2022/05/30 22:34:01;;;;;;;2.30;1.15;;;10.40;99.90;;;;;;6216110;23;20020;-95
2022/05/30 22:36:29;;;;;;;2.15;1.00;;;10.30;99.90;;;;;;6215531;22;20027;-94
2022/05/30 22:38:55;;;;;;;2.85;1.20;;;10.30;99.90;;;;;;6215989;22;20069;-94
2022/05/30 22:41:22;;;;;;;2.38;1.13;;;10.30;99.90;;;;;;6215805;23;20032;-91
2022/05/30 22:46:23;;;;;;;3.13;1.00;;;10.30;99.90;;;;;;6241471;22;19916;-91
2022/05/30 22:48:49;;;;;;;2.60;1.03;;;10.20;99.90;;;;;;6240404;22;20027;-89
2022/05/30 22:51:15;;;;;;;2.30;1.00;;;10.20;99.90;;;;;;6215376;23;20038;-89
2022/05/30 22:53:46;;;;;;;2.38;1.08;;;10.10;99.90;;;;;;6240304;23;20024;-89
2022/05/30 22:56:13;;;;;;;2.13;1.10;;;10.00;99.90;;;;;;6240188;23;20019;-88
2022/05/30 22:58:38;;;;;;;;;;;10.00;99.90;;;;;;6215592;22;20016;-89
2022/05/30 23:08:50;;;;;;;2.70;1.30;;;9.90;99.90;;;;;;6271162;22;20034;-90
2022/05/30 23:11:27;;;;;;;2.67;1.20;;;9.90;99.90;;;;;;6245689;22;20016;-90
2022/05/30 23:14:06;;;;;;;2.78;1.40;;;9.90;99.90;;;;;;6243457;22;20016;-89
2022/05/30 23:16:36;;;;;;;2.75;1.20;;;9.90;99.90;;;;;;6243359;22;20091;-91
2022/05/30 23:19:05;;;;;;;2.72;1.30;;;9.90;99.90;;;;;;6243433;22;20020;-90
2022/05/30 23:21:52;;;;;;;2.42;1.20;;;9.90;99.90;;;;;;6245244;22;20339;-96
2022/05/30 23:24:19;;;;;;;3.97;1.38;;;9.90;99.90;;;;;;6246217;22;20156;-94
2022/05/30 23:26:45;;;;;;;3.25;1.20;;;9.80;99.90;;;;;;6243521;22;20012;-95
2022/05/30 23:29:12;;;;;;;;;;;9.80;99.90;;;;;;6244012;22;20104;-94
2022/05/30 23:31:39;;;;;;;3.50;1.70;;;9.80;99.90;;;;;;6243251;22;19915;-91
2022/05/30 23:34:05;;;;;;;2.88;1.35;;;9.80;99.90;;;;;;6245062;22;20782;-91
2022/05/30 23:36:32;;;;;;;2.78;1.30;;;9.80;99.90;;;;;;6244965;22;20065;-91
2022/05/30 23:38:57;;;;;;;3.30;1.60;;;9.80;99.90;;;;;;6245084;22;20015;-91
2022/05/30 23:47:02;;;;;;;3.53;1.52;;;9.70;99.90;;;;;;6270802;22;20024;-92
2022/05/30 23:49:27;;;;;;;4.47;1.55;;;9.70;99.90;;;;;;6244476;22;20042;-92
2022/05/30 23:51:54;;;;;;;3.53;1.80;;;9.80;99.90;;;;;;6244541;22;20021;-96
2022/05/30 23:54:23;;;;;;;3.42;1.83;;;9.70;99.90;;;;;;6244612;22;20173;-92
2022/05/30 23:56:49;;;;;;;4.50;2.03;;;9.80;99.90;;;;;;6244513;22;20053;-91
2022/05/30 23:59:21;;;;;;;3.85;1.90;;;9.80;99.90;;;;;;6244802;22;20020;-93
